sensor_id;sensor_type;location;lat;lon;timestamp;pressure;altitude;pressure_sealevel;temperature;humidity
9764;BME280;4921;43.214;27.936;2023-03-19T00:02:26;101620.38;;;10.28;100.00
9764;BME280;4921;43.214;27.936;2023-03-19T00:04:53;101630.16;;;10.26;100.00
9764;BME280;4921;43.214;27.936;2023-03-19T00:07:22;101630.72;;;10.17;100.00
9764;BME280;4921;43.214;27.936;2023-03-19T00:09:49;101629.56;;;10.07;100.00
9764;BME280;4921;43.214;27.936;2023-03-19T00:12:16;101633.03;;;10.07;100.00
9764;BME280;4921;43.214;27.936;2023-03-19T00:14:43;101631.75;;;10.14;100.00
9764;BME280;4921;43.214;27.936;2023-03-19T00:17:10;101632.59;;;10.15;100.00
9764;BME280;4921;43.214;27.936;2023-03-19T00:19:37;101624.53;;;10.18;100.00
9764;BME280;4921;43.214;27.936;2023-03-19T00:22:05;101627.81;;;10.21;100.00
9764;BME280;4921;43.214;27.936;2023-03-19T00:24:34;101620.56;;;10.25;100.00
9764;BME280;4921;43.214;27.936;2023-03-19T00:27:01;101623.00;;;10.14;100.00
9764;BME280;4921;43.214;27.936;2023-03-19T00:29:29;101622.94;;;10.15;100.00
9764;BME280;4921;43.214;27.936;2023-03-19T00:31:56;101617.47;;;10.18;100.00
9764;BME280;4921;43.214;27.936;2023-03-19T00:34:23;101617.56;;;10.17;100.00
9764;BME280;4921;43.214;27.936;2023-03-19T00:36:50;101595.41;;;10.07;100.00
9764;BME280;4921;43.214;27.936;2023-03-19T00:39:17;101614.19;;;10.15;100.00
9764;BME280;4921;43.214;27.936;2023-03-19T00:41:47;101607.81;;;10.19;100.00
9764;BME280;4921;43.214;27.936;2023-03-19T00:44:15;101612.50;;;10.28;100.00
9764;BME280;4921;43.214;27.936;2023-03-19T00:46:43;101617.94;;;10.25;100.00
9764;BME280;4921;43.214;27.936;2023-03-19T00:49:10;101608.44;;;10.08;100.00
9764;BME280;4921;43.214;27.936;2023-03-19T00:51:37;101611.81;;;10.10;100.00
9764;BME280;4921;43.214;27.936;2023-03-19T00:54:09;101616.34;;;10.22;100.00
9764;BME280;4921;43.214;27.936;2023-03-19T00:56:36;101613.34;;;10.28;100.00
9764;BME280;4921;43.214;27.936;2023-03-19T00:59:05;101628.91;;;10.31;100.00
9764;BME280;4921;43.214;27.936;2023-03-19T01:01:32;101613.59;;;10.38;100.00
9764;BME280;4921;43.214;27.936;2023-03-19T01:03:59;101616.22;;;10.38;100.00
9764;BME280;4921;43.214;27.936;2023-03-19T01:06:26;101617.84;;;10.12;100.00
9764;BME280;4921;43.214;27.936;2023-03-19T01:08:53;101608.31;;;10.11;100.00
9764;BME280;4921;43.214;27.936;2023-03-19T01:11:20;101605.53;;;10.27;100.00
9764;BME280;4921;43.214;27.936;2023-03-19T01:13:47;101601.13;;;10.27;100.00
9764;BME280;4921;43.214;27.936;2023-03-19T01:16:15;101596.72;;;10.28;100.00
9764;BME280;4921;43.214;27.936;2023-03-19T01:18:42;101603.59;;;10.16;100.00
9764;BME280;4921;43.214;27.936;2023-03-19T01:21:11;101600.13;;;10.16;100.00
9764;BME280;4921;43.214;27.936;2023-03-19T01:23:38;101594.78;;;10.17;100.00
9764;BME280;4921;43.214;27.936;2023-03-19T01:26:05;101606.03;;;10.19;100.00
9764;BME280;4921;43.214;27.936;2023-03-19T01:28:32;101606.50;;;10.26;100.00
9764;BME280;4921;43.214;27.936;2023-03-19T01:31:00;101603.47;;;10.32;100.00
9764;BME280;4921;43.214;27.936;2023-03-19T01:33:29;101609.69;;;10.31;100.00
9764;BME280;4921;43.214;27.936;2023-03-19T01:35:56;101602.56;;;10.19;100.00
9764;BME280;4921;43.214;27.936;2023-03-19T01:38:23;101601.25;;;10.12;100.00
9764;BME280;4921;43.214;27.936;2023-03-19T01:40:51;101606.75;;;10.07;100.00
9764;BME280;4921;43.214;27.936;2023-03-19T01:43:20;101604.44;;;10.03;100.00
9764;BME280;4921;43.214;27.936;2023-03-19T01:45:48;101610.88;;;9.97;100.00
9764;BME280;4921;43.214;27.936;2023-03-19T01:48:19;101605.53;;;9.98;100.00
9764;BME280;4921;43.214;27.936;2023-03-19T01:50:50;101607.44;;;10.11;100.00
9764;BME280;4921;43.214;27.936;2023-03-19T01:53:22;101607.81;;;10.05;100.00
9764;BME280;4921;43.214;27.936;2023-03-19T01:55:51;101618.50;;;10.02;100.00
9764;BME280;4921;43.214;27.936;2023-03-19T01:58:21;101608.09;;;10.00;100.00
9764;BME280;4921;43.214;27.936;2023-03-19T02:00:48;101609.75;;;10.01;100.00
9764;BME280;4921;43.214;27.936;2023-03-19T02:03:15;101615.13;;;9.99;100.00
9764;BME280;4921;43.214;27.936;2023-03-19T02:05:44;101618.50;;;10.02;100.00
9764;BME280;4921;43.214;27.936;2023-03-19T02:08:15;101616.59;;;10.04;100.00
9764;BME280;4921;43.214;27.936;2023-03-19T02:10:45;101616.50;;;10.05;100.00
9764;BME280;4921;43.214;27.936;2023-03-19T02:13:13;101624.50;;;10.04;100.00
9764;BME280;4921;43.214;27.936;2023-03-19T02:15:40;101618.31;;;10.05;100.00
9764;BME280;4921;43.214;27.936;2023-03-19T02:18:08;101626.31;;;10.17;100.00
9764;BME280;4921;43.214;27.936;2023-03-19T02:20:43;101625.91;;;10.09;100.00
9764;BME280;4921;43.214;27.936;2023-03-19T02:23:20;101625.84;;;10.11;100.00
9764;BME280;4921;43.214;27.936;2023-03-19T02:25:58;101634.38;;;10.14;100.00
9764;BME280;4921;43.214;27.936;2023-03-19T02:28:27;101634.34;;;10.00;100.00
9764;BME280;4921;43.214;27.936;2023-03-19T02:30:54;101638.56;;;9.88;100.00
9764;BME280;4921;43.214;27.936;2023-03-19T02:33:21;101646.16;;;9.93;100.00
9764;BME280;4921;43.214;27.936;2023-03-19T02:35:50;101650.19;;;9.98;100.00
9764;BME280;4921;43.214;27.936;2023-03-19T02:38:18;101654.97;;;9.92;100.00
9764;BME280;4921;43.214;27.936;2023-03-19T02:40:50;101635.09;;;9.74;100.00
9764;BME280;4921;43.214;27.936;2023-03-19T02:43:21;101645.53;;;9.89;100.00
9764;BME280;4921;43.214;27.936;2023-03-19T02:45:48;101661.75;;;9.96;100.00
9764;BME280;4921;43.214;27.936;2023-03-19T02:48:15;101649.53;;;9.95;100.00
9764;BME280;4921;43.214;27.936;2023-03-19T02:50:42;101667.66;;;9.99;100.00
9764;BME280;4921;43.214;27.936;2023-03-19T02:53:09;101671.91;;;10.02;100.00
9764;BME280;4921;43.214;27.936;2023-03-19T02:55:37;101668.53;;;10.00;100.00
9764;BME280;4921;43.214;27.936;2023-03-19T02:58:03;101667.56;;;9.87;100.00
9764;BME280;4921;43.214;27.936;2023-03-19T03:00:32;101671.41;;;9.95;100.00
9764;BME280;4921;43.214;27.936;2023-03-19T03:03:00;101668.59;;;9.98;100.00
9764;BME280;4921;43.214;27.936;2023-03-19T03:05:27;101678.16;;;9.85;100.00
9764;BME280;4921;43.214;27.936;2023-03-19T03:07:54;101669.66;;;9.96;100.00
9764;BME280;4921;43.214;27.936;2023-03-19T03:10:21;101673.66;;;9.87;100.00
9764;BME280;4921;43.214;27.936;2023-03-19T03:12:48;101674.75;;;9.83;100.00
9764;BME280;4921;43.214;27.936;2023-03-19T03:15:15;101673.19;;;9.95;100.00
9764;BME280;4921;43.214;27.936;2023-03-19T03:17:44;101669.22;;;9.88;100.00
9764;BME280;4921;43.214;27.936;2023-03-19T03:20:12;101669.34;;;9.86;100.00
9764;BME280;4921;43.214;27.936;2023-03-19T03:22:40;101669.72;;;9.80;100.00
9764;BME280;4921;43.214;27.936;2023-03-19T03:25:08;101676.56;;;9.83;100.00
9764;BME280;4921;43.214;27.936;2023-03-19T03:27:36;101668.84;;;9.80;100.00
9764;BME280;4921;43.214;27.936;2023-03-19T03:30:03;101682.31;;;9.89;100.00
9764;BME280;4921;43.214;27.936;2023-03-19T03:32:31;101683.31;;;10.01;100.00
9764;BME280;4921;43.214;27.936;2023-03-19T03:34:59;101681.06;;;9.95;100.00
9764;BME280;4921;43.214;27.936;2023-03-19T03:37:26;101689.69;;;9.83;100.00
9764;BME280;4921;43.214;27.936;2023-03-19T03:39:53;101686.50;;;9.78;100.00
9764;BME280;4921;43.214;27.936;2023-03-19T03:42:20;101694.69;;;9.87;100.00
9764;BME280;4921;43.214;27.936;2023-03-19T03:44:47;101691.84;;;9.90;100.00
9764;BME280;4921;43.214;27.936;2023-03-19T03:47:14;101691.00;;;9.90;100.00
9764;BME280;4921;43.214;27.936;2023-03-19T03:49:42;101688.25;;;9.77;100.00
9764;BME280;4921;43.214;27.936;2023-03-19T03:52:11;101682.34;;;9.74;100.00
9764;BME280;4921;43.214;27.936;2023-03-19T03:54:38;101683.81;;;9.93;100.00
9764;BME280;4921;43.214;27.936;2023-03-19T03:57:05;101687.47;;;9.91;100.00
9764;BME280;4921;43.214;27.936;2023-03-19T03:59:32;101686.97;;;9.98;100.00
9764;BME280;4921;43.214;27.936;2023-03-19T04:01:59;101685.03;;;10.02;100.00
9764;BME280;4921;43.214;27.936;2023-03-19T04:04:26;101693.47;;;10.07;100.00
9764;BME280;4921;43.214;27.936;2023-03-19T04:06:54;101695.16;;;9.94;100.00
9764;BME280;4921;43.214;27.936;2023-03-19T04:09:22;101694.22;;;9.95;100.00
9764;BME280;4921;43.214;27.936;2023-03-19T04:11:49;101697.31;;;10.02;100.00
9764;BME280;4921;43.214;27.936;2023-03-19T04:14:16;101695.66;;;10.01;100.00
9764;BME280;4921;43.214;27.936;2023-03-19T04:16:43;101700.69;;;10.04;100.00
9764;BME280;4921;43.214;27.936;2023-03-19T04:19:10;101691.75;;;9.92;100.00
9764;BME280;4921;43.214;27.936;2023-03-19T04:21:37;101700.00;;;9.86;100.00
9764;BME280;4921;43.214;27.936;2023-03-19T04:24:04;101700.50;;;9.92;100.00
9764;BME280;4921;43.214;27.936;2023-03-19T04:26:33;101704.63;;;9.96;100.00
9764;BME280;4921;43.214;27.936;2023-03-19T04:29:01;101708.69;;;10.02;100.00
9764;BME280;4921;43.214;27.936;2023-03-19T04:31:27;101706.59;;;9.93;100.00
9764;BME280;4921;43.214;27.936;2023-03-19T04:33:55;101713.19;;;10.00;100.00
9764;BME280;4921;43.214;27.936;2023-03-19T04:36:22;101717.13;;;9.93;100.00
9764;BME280;4921;43.214;27.936;2023-03-19T04:38:49;101708.66;;;9.88;100.00
9764;BME280;4921;43.214;27.936;2023-03-19T04:41:16;101719.63;;;9.94;100.00
9764;BME280;4921;43.214;27.936;2023-03-19T04:43:44;101725.00;;;9.93;100.00
9764;BME280;4921;43.214;27.936;2023-03-19T04:46:11;101724.81;;;9.96;100.00
9764;BME280;4921;43.214;27.936;2023-03-19T04:48:38;101720.22;;;9.99;100.00
9764;BME280;4921;43.214;27.936;2023-03-19T04:51:05;101718.03;;;9.92;100.00
9764;BME280;4921;43.214;27.936;2023-03-19T04:53:34;101720.88;;;9.89;100.00
9764;BME280;4921;43.214;27.936;2023-03-19T04:56:02;101725.53;;;9.84;100.00
9764;BME280;4921;43.214;27.936;2023-03-19T04:58:29;101719.75;;;9.93;100.00
9764;BME280;4921;43.214;27.936;2023-03-19T05:00:57;101721.63;;;10.05;100.00
9764;BME280;4921;43.214;27.936;2023-03-19T05:03:25;101717.91;;;10.09;100.00
9764;BME280;4921;43.214;27.936;2023-03-19T05:05:52;101719.19;;;10.02;100.00
9764;BME280;4921;43.214;27.936;2023-03-19T05:08:19;101715.06;;;9.98;100.00
9764;BME280;4921;43.214;27.936;2023-03-19T05:10:46;101721.94;;;10.01;100.00
9764;BME280;4921;43.214;27.936;2023-03-19T05:13:13;101711.75;;;9.94;100.00
9764;BME280;4921;43.214;27.936;2023-03-19T05:15:40;101720.06;;;10.03;100.00
9764;BME280;4921;43.214;27.936;2023-03-19T05:18:10;101712.44;;;9.98;100.00
9764;BME280;4921;43.214;27.936;2023-03-19T05:20:37;101718.25;;;10.03;100.00
9764;BME280;4921;43.214;27.936;2023-03-19T05:23:05;101713.44;;;10.11;100.00
9764;BME280;4921;43.214;27.936;2023-03-19T05:25:32;101711.78;;;10.09;100.00
9764;BME280;4921;43.214;27.936;2023-03-19T05:27:59;101715.69;;;10.17;100.00
9764;BME280;4921;43.214;27.936;2023-03-19T05:30:26;101710.44;;;10.17;100.00
9764;BME280;4921;43.214;27.936;2023-03-19T05:32:55;101715.69;;;10.17;100.00
9764;BME280;4921;43.214;27.936;2023-03-19T05:35:23;101731.72;;;10.13;100.00
9764;BME280;4921;43.214;27.936;2023-03-19T05:37:50;101724.09;;;10.08;100.00
9764;BME280;4921;43.214;27.936;2023-03-19T05:40:18;101729.94;;;10.13;100.00
9764;BME280;4921;43.214;27.936;2023-03-19T05:42:44;101729.84;;;10.15;100.00
9764;BME280;4921;43.214;27.936;2023-03-19T05:45:11;101732.38;;;10.16;100.00
9764;BME280;4921;43.214;27.936;2023-03-19T05:47:39;101731.59;;;10.00;100.00
9764;BME280;4921;43.214;27.936;2023-03-19T05:50:06;101726.31;;;10.00;100.00
9764;BME280;4921;43.214;27.936;2023-03-19T05:52:35;101717.56;;;10.15;100.00
9764;BME280;4921;43.214;27.936;2023-03-19T05:55:02;101715.47;;;10.20;100.00
9764;BME280;4921;43.214;27.936;2023-03-19T05:57:29;101718.69;;;10.25;100.00
9764;BME280;4921;43.214;27.936;2023-03-19T05:59:56;101710.63;;;10.28;100.00
9764;BME280;4921;43.214;27.936;2023-03-19T06:02:23;101723.38;;;10.20;100.00
9764;BME280;4921;43.214;27.936;2023-03-19T06:04:50;101717.94;;;10.23;100.00
9764;BME280;4921;43.214;27.936;2023-03-19T06:07:17;101720.84;;;10.19;100.00
9764;BME280;4921;43.214;27.936;2023-03-19T06:09:45;101721.16;;;10.28;100.00
9764;BME280;4921;43.214;27.936;2023-03-19T06:12:13;101727.81;;;10.34;100.00
9764;BME280;4921;43.214;27.936;2023-03-19T06:14:40;101738.03;;;10.24;100.00
9764;BME280;4921;43.214;27.936;2023-03-19T06:17:07;101735.31;;;10.26;100.00
9764;BME280;4921;43.214;27.936;2023-03-19T06:19:34;101732.47;;;10.29;100.00
9764;BME280;4921;43.214;27.936;2023-03-19T06:22:01;101735.22;;;10.27;100.00
9764;BME280;4921;43.214;27.936;2023-03-19T06:24:28;101740.47;;;10.27;100.00
9764;BME280;4921;43.214;27.936;2023-03-19T06:26:56;101742.81;;;10.32;100.00
9764;BME280;4921;43.214;27.936;2023-03-19T06:29:24;101744.53;;;10.33;100.00
9764;BME280;4921;43.214;27.936;2023-03-19T06:31:51;101746.00;;;10.23;100.00
9764;BME280;4921;43.214;27.936;2023-03-19T06:34:18;101742.06;;;10.30;100.00
9764;BME280;4921;43.214;27.936;2023-03-19T06:36:45;101746.78;;;10.39;100.00
9764;BME280;4921;43.214;27.936;2023-03-19T06:39:13;101748.56;;;10.38;100.00
9764;BME280;4921;43.214;27.936;2023-03-19T06:41:40;101760.19;;;10.34;100.00
9764;BME280;4921;43.214;27.936;2023-03-19T06:44:08;101761.22;;;10.32;100.00
9764;BME280;4921;43.214;27.936;2023-03-19T06:46:35;101764.97;;;10.28;100.00
9764;BME280;4921;43.214;27.936;2023-03-19T06:49:02;101770.50;;;10.37;100.00
9764;BME280;4921;43.214;27.936;2023-03-19T06:51:29;101763.31;;;10.41;100.00
9764;BME280;4921;43.214;27.936;2023-03-19T06:53:56;101769.31;;;10.43;100.00
9764;BME280;4921;43.214;27.936;2023-03-19T06:56:23;101767.53;;;10.43;100.00
9764;BME280;4921;43.214;27.936;2023-03-19T06:58:50;101765.47;;;10.34;100.00
9764;BME280;4921;43.214;27.936;2023-03-19T07:01:18;101773.44;;;10.33;100.00
9764;BME280;4921;43.214;27.936;2023-03-19T07:03:46;101774.75;;;10.40;100.00
9764;BME280;4921;43.214;27.936;2023-03-19T07:06:13;101778.22;;;10.26;100.00
9764;BME280;4921;43.214;27.936;2023-03-19T07:08:40;101788.00;;;10.24;100.00
9764;BME280;4921;43.214;27.936;2023-03-19T07:11:11;101784.13;;;10.30;100.00
9764;BME280;4921;43.214;27.936;2023-03-19T07:13:38;101785.53;;;10.35;100.00
9764;BME280;4921;43.214;27.936;2023-03-19T07:16:06;101786.97;;;10.41;100.00
9764;BME280;4921;43.214;27.936;2023-03-19T07:18:34;101783.50;;;10.40;100.00
9764;BME280;4921;43.214;27.936;2023-03-19T07:21:02;101769.50;;;10.40;100.00
9764;BME280;4921;43.214;27.936;2023-03-19T07:23:29;101776.84;;;10.35;100.00
9764;BME280;4921;43.214;27.936;2023-03-19T07:25:56;101774.84;;;10.38;100.00
9764;BME280;4921;43.214;27.936;2023-03-19T07:28:23;101782.38;;;10.44;100.00
9764;BME280;4921;43.214;27.936;2023-03-19T07:30:50;101771.84;;;10.44;100.00
9764;BME280;4921;43.214;27.936;2023-03-19T07:33:17;101776.66;;;10.52;100.00
9764;BME280;4921;43.214;27.936;2023-03-19T07:35:46;101771.59;;;10.63;100.00
9764;BME280;4921;43.214;27.936;2023-03-19T07:38:12;101776.94;;;10.61;100.00
9764;BME280;4921;43.214;27.936;2023-03-19T07:40:40;101775.34;;;10.73;100.00
9764;BME280;4921;43.214;27.936;2023-03-19T07:43:07;101762.19;;;10.73;100.00
9764;BME280;4921;43.214;27.936;2023-03-19T07:45:34;101784.91;;;10.74;100.00
9764;BME280;4921;43.214;27.936;2023-03-19T07:48:01;101792.72;;;10.76;100.00
9764;BME280;4921;43.214;27.936;2023-03-19T07:50:28;101788.97;;;10.80;100.00
9764;BME280;4921;43.214;27.936;2023-03-19T07:52:56;101791.69;;;10.78;100.00
9764;BME280;4921;43.214;27.936;2023-03-19T07:55:24;101789.88;;;10.79;100.00
9764;BME280;4921;43.214;27.936;2023-03-19T07:57:51;101784.06;;;10.88;100.00
9764;BME280;4921;43.214;27.936;2023-03-19T08:00:18;101785.38;;;10.95;100.00
9764;BME280;4921;43.214;27.936;2023-03-19T08:02:45;101779.25;;;10.94;100.00
9764;BME280;4921;43.214;27.936;2023-03-19T08:05:12;101776.34;;;10.99;100.00
9764;BME280;4921;43.214;27.936;2023-03-19T08:07:39;101777.94;;;11.01;100.00
9764;BME280;4921;43.214;27.936;2023-03-19T08:10:09;101777.56;;;11.07;100.00
9764;BME280;4921;43.214;27.936;2023-03-19T08:12:36;101776.91;;;11.04;100.00
9764;BME280;4921;43.214;27.936;2023-03-19T08:15:08;101779.63;;;11.16;100.00
9764;BME280;4921;43.214;27.936;2023-03-19T08:17:35;101770.75;;;11.17;100.00
9764;BME280;4921;43.214;27.936;2023-03-19T08:20:05;101779.31;;;11.21;100.00
9764;BME280;4921;43.214;27.936;2023-03-19T08:22:33;101759.78;;;11.11;100.00
9764;BME280;4921;43.214;27.936;2023-03-19T08:25:01;101775.66;;;11.23;100.00
9764;BME280;4921;43.214;27.936;2023-03-19T08:27:30;101777.22;;;11.26;100.00
9764;BME280;4921;43.214;27.936;2023-03-19T08:29:58;101768.28;;;11.28;100.00
9764;BME280;4921;43.214;27.936;2023-03-19T08:32:25;101775.91;;;11.33;100.00
9764;BME280;4921;43.214;27.936;2023-03-19T08:34:52;101770.16;;;11.40;100.00
9764;BME280;4921;43.214;27.936;2023-03-19T08:37:19;101776.41;;;11.52;100.00
9764;BME280;4921;43.214;27.936;2023-03-19T08:39:49;101769.16;;;11.56;100.00
9764;BME280;4921;43.214;27.936;2023-03-19T08:42:16;101762.31;;;11.66;100.00
9764;BME280;4921;43.214;27.936;2023-03-19T08:44:47;101758.16;;;11.76;100.00
9764;BME280;4921;43.214;27.936;2023-03-19T08:47:14;101759.16;;;11.87;100.00
9764;BME280;4921;43.214;27.936;2023-03-19T08:49:41;101752.31;;;11.97;100.00
9764;BME280;4921;43.214;27.936;2023-03-19T08:52:08;101754.44;;;12.05;100.00
9764;BME280;4921;43.214;27.936;2023-03-19T08:54:35;101757.28;;;12.14;100.00
9764;BME280;4921;43.214;27.936;2023-03-19T08:57:03;101767.09;;;12.12;100.00
9764;BME280;4921;43.214;27.936;2023-03-19T08:59:30;101766.66;;;12.06;100.00
9764;BME280;4921;43.214;27.936;2023-03-19T09:01:58;101766.16;;;12.13;100.00
9764;BME280;4921;43.214;27.936;2023-03-19T09:04:25;101767.94;;;12.13;100.00
9764;BME280;4921;43.214;27.936;2023-03-19T09:06:52;101765.44;;;12.24;100.00
9764;BME280;4921;43.214;27.936;2023-03-19T09:09:21;101763.00;;;12.34;100.00
9764;BME280;4921;43.214;27.936;2023-03-19T09:11:48;101762.69;;;12.38;100.00
9764;BME280;4921;43.214;27.936;2023-03-19T09:14:15;101765.00;;;12.43;100.00
9764;BME280;4921;43.214;27.936;2023-03-19T09:16:44;101759.53;;;12.46;100.00
9764;BME280;4921;43.214;27.936;2023-03-19T09:19:12;101766.28;;;12.50;100.00
9764;BME280;4921;43.214;27.936;2023-03-19T09:21:40;101744.88;;;12.42;100.00
9764;BME280;4921;43.214;27.936;2023-03-19T09:24:07;101751.78;;;12.55;100.00
9764;BME280;4921;43.214;27.936;2023-03-19T09:26:34;101759.09;;;12.52;100.00
9764;BME280;4921;43.214;27.936;2023-03-19T09:29:01;101749.91;;;12.45;100.00
9764;BME280;4921;43.214;27.936;2023-03-19T09:31:29;101748.66;;;12.50;100.00
9764;BME280;4921;43.214;27.936;2023-03-19T09:33:56;101746.03;;;12.50;100.00
9764;BME280;4921;43.214;27.936;2023-03-19T09:36:24;101753.81;;;12.64;100.00
9764;BME280;4921;43.214;27.936;2023-03-19T09:38:51;101755.38;;;12.67;100.00
9764;BME280;4921;43.214;27.936;2023-03-19T09:41:26;101735.88;;;12.57;100.00
9764;BME280;4921;43.214;27.936;2023-03-19T09:44:00;101738.41;;;12.58;100.00
9764;BME280;4921;43.214;27.936;2023-03-19T09:46:32;101738.53;;;12.57;100.00
9764;BME280;4921;43.214;27.936;2023-03-19T09:49:05;101733.25;;;12.57;100.00
9764;BME280;4921;43.214;27.936;2023-03-19T09:51:39;101733.41;;;12.66;100.00
9764;BME280;4921;43.214;27.936;2023-03-19T09:54:19;101732.25;;;12.70;100.00
9764;BME280;4921;43.214;27.936;2023-03-19T09:56:48;101735.31;;;12.77;100.00
9764;BME280;4921;43.214;27.936;2023-03-19T09:59:15;101729.09;;;12.78;100.00
9764;BME280;4921;43.214;27.936;2023-03-19T10:01:48;101730.56;;;12.82;100.00
9764;BME280;4921;43.214;27.936;2023-03-19T10:04:37;101725.28;;;12.82;100.00
9764;BME280;4921;43.214;27.936;2023-03-19T10:07:28;101729.22;;;12.76;100.00
9764;BME280;4921;43.214;27.936;2023-03-19T10:10:13;101723.38;;;12.84;100.00
9764;BME280;4921;43.214;27.936;2023-03-19T10:12:50;101717.97;;;12.85;100.00
9764;BME280;4921;43.214;27.936;2023-03-19T10:15:28;101723.78;;;12.90;100.00
9764;BME280;4921;43.214;27.936;2023-03-19T10:17:58;101717.16;;;12.85;100.00
9764;BME280;4921;43.214;27.936;2023-03-19T10:20:35;101719.34;;;12.91;100.00
9764;BME280;4921;43.214;27.936;2023-03-19T10:23:18;101710.78;;;12.87;100.00
9764;BME280;4921;43.214;27.936;2023-03-19T10:25:49;101719.09;;;12.94;100.00
9764;BME280;4921;43.214;27.936;2023-03-19T10:28:18;101720.94;;;12.93;100.00
9764;BME280;4921;43.214;27.936;2023-03-19T10:30:54;101716.38;;;12.95;100.00
9764;BME280;4921;43.214;27.936;2023-03-19T10:33:31;101708.66;;;13.05;100.00
9764;BME280;4921;43.214;27.936;2023-03-19T10:36:04;101700.34;;;12.86;100.00
9764;BME280;4921;43.214;27.936;2023-03-19T10:38:39;101712.94;;;12.82;100.00
9764;BME280;4921;43.214;27.936;2023-03-19T10:41:25;101708.38;;;12.84;100.00
9764;BME280;4921;43.214;27.936;2023-03-19T10:43:57;101710.03;;;12.85;100.00
9764;BME280;4921;43.214;27.936;2023-03-19T10:46:26;101696.47;;;13.02;100.00
9764;BME280;4921;43.214;27.936;2023-03-19T10:48:53;101699.47;;;13.11;100.00
9764;BME280;4921;43.214;27.936;2023-03-19T10:51:22;101697.16;;;13.06;100.00
9764;BME280;4921;43.214;27.936;2023-03-19T10:53:53;101705.34;;;13.14;100.00
9764;BME280;4921;43.214;27.936;2023-03-19T10:56:22;101695.84;;;13.12;100.00
9764;BME280;4921;43.214;27.936;2023-03-19T10:58:58;101677.47;;;13.10;100.00
9764;BME280;4921;43.214;27.936;2023-03-19T11:01:27;101681.09;;;12.96;100.00
9764;BME280;4921;43.214;27.936;2023-03-19T11:03:59;101681.41;;;13.05;100.00
9764;BME280;4921;43.214;27.936;2023-03-19T11:06:30;101677.34;;;13.12;100.00
9764;BME280;4921;43.214;27.936;2023-03-19T11:09:00;101674.38;;;13.16;100.00
9764;BME280;4921;43.214;27.936;2023-03-19T11:11:35;101680.19;;;13.21;100.00
9764;BME280;4921;43.214;27.936;2023-03-19T11:14:11;101667.09;;;13.20;100.00
9764;BME280;4921;43.214;27.936;2023-03-19T11:16:48;101662.25;;;13.14;100.00
9764;BME280;4921;43.214;27.936;2023-03-19T11:19:20;101653.25;;;13.16;100.00
9764;BME280;4921;43.214;27.936;2023-03-19T11:22:00;101662.09;;;13.28;100.00
9764;BME280;4921;43.214;27.936;2023-03-19T11:24:32;101659.19;;;13.31;100.00
9764;BME280;4921;43.214;27.936;2023-03-19T11:26:59;101665.38;;;13.42;100.00
9764;BME280;4921;43.214;27.936;2023-03-19T11:29:28;101655.31;;;13.47;100.00
9764;BME280;4921;43.214;27.936;2023-03-19T11:32:02;101636.81;;;13.47;100.00
9764;BME280;4921;43.214;27.936;2023-03-19T11:34:37;101647.16;;;13.61;100.00
9764;BME280;4921;43.214;27.936;2023-03-19T11:37:10;101642.38;;;13.66;100.00
9764;BME280;4921;43.214;27.936;2023-03-19T11:39:47;101639.41;;;13.71;100.00
9764;BME280;4921;43.214;27.936;2023-03-19T11:42:40;101644.72;;;13.82;100.00
9764;BME280;4921;43.214;27.936;2023-03-19T11:45:17;101640.16;;;13.95;100.00
9764;BME280;4921;43.214;27.936;2023-03-19T11:47:50;101639.78;;;13.89;100.00
9764;BME280;4921;43.214;27.936;2023-03-19T11:50:25;101642.44;;;13.89;100.00
9764;BME280;4921;43.214;27.936;2023-03-19T11:53:10;101629.53;;;13.73;100.00
9764;BME280;4921;43.214;27.936;2023-03-19T11:55:45;101634.94;;;13.71;100.00
9764;BME280;4921;43.214;27.936;2023-03-19T12:01:40;101624.63;;;13.80;100.00
9764;BME280;4921;43.214;27.936;2023-03-19T12:04:26;101626.94;;;13.84;100.00
9764;BME280;4921;43.214;27.936;2023-03-19T12:07:02;101627.88;;;13.83;100.00
9764;BME280;4921;43.214;27.936;2023-03-19T12:09:36;101633.63;;;13.77;100.00
9764;BME280;4921;43.214;27.936;2023-03-19T12:12:15;101633.28;;;13.82;100.00
9764;BME280;4921;43.214;27.936;2023-03-19T12:15:01;101637.50;;;13.84;100.00
9764;BME280;4921;43.214;27.936;2023-03-19T12:17:45;101635.56;;;13.75;100.00
9764;BME280;4921;43.214;27.936;2023-03-19T12:20:33;101623.28;;;13.74;100.00
9764;BME280;4921;43.214;27.936;2023-03-19T12:23:05;101622.72;;;13.82;100.00
9764;BME280;4921;43.214;27.936;2023-03-19T12:25:45;101620.66;;;13.85;100.00
9764;BME280;4921;43.214;27.936;2023-03-19T12:28:23;101610.22;;;13.95;100.00
9764;BME280;4921;43.214;27.936;2023-03-19T12:31:06;101598.94;;;14.04;100.00
9764;BME280;4921;43.214;27.936;2023-03-19T12:33:43;101606.25;;;14.11;100.00
9764;BME280;4921;43.214;27.936;2023-03-19T12:36:17;101608.06;;;14.11;100.00
9764;BME280;4921;43.214;27.936;2023-03-19T12:38:48;101608.66;;;14.14;100.00
9764;BME280;4921;43.214;27.936;2023-03-19T12:41:19;101606.03;;;14.25;100.00
9764;BME280;4921;43.214;27.936;2023-03-19T12:43:54;101607.69;;;14.26;100.00
9764;BME280;4921;43.214;27.936;2023-03-19T12:46:26;101607.56;;;14.28;100.00
9764;BME280;4921;43.214;27.936;2023-03-19T12:48:57;101604.56;;;14.21;100.00
9764;BME280;4921;43.214;27.936;2023-03-19T12:51:31;101597.94;;;13.94;98.83
9764;BME280;4921;43.214;27.936;2023-03-19T12:54:02;101604.66;;;13.87;100.00
9764;BME280;4921;43.214;27.936;2023-03-19T12:56:36;101604.69;;;13.98;100.00
9764;BME280;4921;43.214;27.936;2023-03-19T12:59:12;101593.00;;;13.89;100.00
9764;BME280;4921;43.214;27.936;2023-03-19T13:01:46;101605.81;;;13.49;100.00
9764;BME280;4921;43.214;27.936;2023-03-19T13:04:17;101601.25;;;13.51;100.00
9764;BME280;4921;43.214;27.936;2023-03-19T13:06:50;101604.75;;;13.52;100.00
9764;BME280;4921;43.214;27.936;2023-03-19T13:09:27;101608.03;;;13.66;100.00